sensor_id;sensor_type;location;lat;lon;timestamp;temperature;humidity
23721;DHT22;42950;52.134;5.578;2023-09-12T00:00:10;20.80;99.90
23721;DHT22;42950;52.134;5.578;2023-09-12T00:02:37;20.80;99.90
23721;DHT22;42950;52.134;5.578;2023-09-12T00:05:03;20.90;99.90
23721;DHT22;42950;52.134;5.578;2023-09-12T00:07:30;20.60;99.90
23721;DHT22;42950;52.134;5.578;2023-09-12T00:09:56;21.00;99.90
23721;DHT22;42950;52.134;5.578;2023-09-12T00:14:53;20.70;99.90
23721;DHT22;42950;52.134;5.578;2023-09-12T00:22:11;20.40;99.90
23721;DHT22;42950;52.134;5.578;2023-09-12T00:24:37;20.60;99.90
23721;DHT22;42950;52.134;5.578;2023-09-12T00:29:32;20.50;99.90
23721;DHT22;42950;52.134;5.578;2023-09-12T00:31:58;20.70;99.90
23721;DHT22;42950;52.134;5.578;2023-09-12T00:34:23;20.60;99.90
23721;DHT22;42950;52.134;5.578;2023-09-12T00:36:49;20.50;99.90
23721;DHT22;42950;52.134;5.578;2023-09-12T00:39:14;20.50;99.90
23721;DHT22;42950;52.134;5.578;2023-09-12T00:41:41;20.70;99.90
23721;DHT22;42950;52.134;5.578;2023-09-12T00:44:07;20.90;99.90
23721;DHT22;42950;52.134;5.578;2023-09-12T00:46:34;21.00;99.90
23721;DHT22;42950;52.134;5.578;2023-09-12T00:49:01;20.30;99.90
23721;DHT22;42950;52.134;5.578;2023-09-12T00:51:31;20.30;99.90
23721;DHT22;42950;52.134;5.578;2023-09-12T00:53:57;20.50;99.90
23721;DHT22;42950;52.134;5.578;2023-09-12T00:56:23;20.70;99.90
23721;DHT22;42950;52.134;5.578;2023-09-12T00:58:49;20.80;99.90
23721;DHT22;42950;52.134;5.578;2023-09-12T01:01:18;20.40;99.90
23721;DHT22;42950;52.134;5.578;2023-09-12T01:03:45;20.60;99.90
23721;DHT22;42950;52.134;5.578;2023-09-12T01:18:28;19.90;99.90
23721;DHT22;42950;52.134;5.578;2023-09-12T01:41:35;19.90;99.90
23721;DHT22;42950;52.134;5.578;2023-09-12T01:44:04;20.10;99.90
23721;DHT22;42950;52.134;5.578;2023-09-12T01:46:34;19.70;99.90
23721;DHT22;42950;52.134;5.578;2023-09-12T01:49:02;20.10;99.90
23721;DHT22;42950;52.134;5.578;2023-09-12T01:51:30;19.90;99.90
23721;DHT22;42950;52.134;5.578;2023-09-12T01:53:57;19.90;99.90
23721;DHT22;42950;52.134;5.578;2023-09-12T01:56:24;20.00;99.90
23721;DHT22;42950;52.134;5.578;2023-09-12T01:58:50;19.60;99.90
23721;DHT22;42950;52.134;5.578;2023-09-12T02:01:16;20.10;99.90
23721;DHT22;42950;52.134;5.578;2023-09-12T02:03:41;19.80;99.90
23721;DHT22;42950;52.134;5.578;2023-09-12T02:06:07;19.60;99.90
23721;DHT22;42950;52.134;5.578;2023-09-12T02:08:33;19.90;99.90
23721;DHT22;42950;52.134;5.578;2023-09-12T02:10:58;19.90;99.90
23721;DHT22;42950;52.134;5.578;2023-09-12T02:13:24;19.90;99.90
23721;DHT22;42950;52.134;5.578;2023-09-12T02:15:58;19.60;99.90
23721;DHT22;42950;52.134;5.578;2023-09-12T02:18:24;19.80;99.90
23721;DHT22;42950;52.134;5.578;2023-09-12T02:20:50;19.90;99.90
23721;DHT22;42950;52.134;5.578;2023-09-12T02:23:15;19.60;99.90
23721;DHT22;42950;52.134;5.578;2023-09-12T02:25:41;19.80;99.90
23721;DHT22;42950;52.134;5.578;2023-09-12T02:28:07;19.40;99.90
23721;DHT22;42950;52.134;5.578;2023-09-12T02:30:32;19.50;99.90
23721;DHT22;42950;52.134;5.578;2023-09-12T02:32:58;19.90;99.90
23721;DHT22;42950;52.134;5.578;2023-09-12T02:35:23;19.40;99.90
23721;DHT22;42950;52.134;5.578;2023-09-12T02:37:49;19.90;99.90
23721;DHT22;42950;52.134;5.578;2023-09-12T02:40:16;19.70;99.90
23721;DHT22;42950;52.134;5.578;2023-09-12T02:42:43;19.80;99.90
23721;DHT22;42950;52.134;5.578;2023-09-12T02:45:10;19.60;99.90
23721;DHT22;42950;52.134;5.578;2023-09-12T02:47:36;19.60;99.90
23721;DHT22;42950;52.134;5.578;2023-09-12T02:50:04;19.60;99.90
23721;DHT22;42950;52.134;5.578;2023-09-12T02:52:29;19.80;99.90
23721;DHT22;42950;52.134;5.578;2023-09-12T02:54:55;19.50;99.90
23721;DHT22;42950;52.134;5.578;2023-09-12T02:57:21;19.20;99.90
23721;DHT22;42950;52.134;5.578;2023-09-12T02:59:47;19.50;99.90
23721;DHT22;42950;52.134;5.578;2023-09-12T03:02:12;19.80;99.90
23721;DHT22;42950;52.134;5.578;2023-09-12T03:04:38;19.40;99.90
23721;DHT22;42950;52.134;5.578;2023-09-12T03:07:04;19.40;99.90
23721;DHT22;42950;52.134;5.578;2023-09-12T03:09:32;19.70;99.90
23721;DHT22;42950;52.134;5.578;2023-09-12T03:11:57;19.60;99.90
23721;DHT22;42950;52.134;5.578;2023-09-12T03:14:23;19.70;99.90
23721;DHT22;42950;52.134;5.578;2023-09-12T03:16:48;19.40;99.90
23721;DHT22;42950;52.134;5.578;2023-09-12T03:19:15;19.20;99.90
23721;DHT22;42950;52.134;5.578;2023-09-12T03:21:41;19.60;99.90
23721;DHT22;42950;52.134;5.578;2023-09-12T03:24:07;19.60;99.90
23721;DHT22;42950;52.134;5.578;2023-09-12T03:31:26;19.00;99.90
23721;DHT22;42950;52.134;5.578;2023-09-12T03:36:20;18.80;99.90
23721;DHT22;42950;52.134;5.578;2023-09-12T03:38:46;19.40;99.90
23721;DHT22;42950;52.134;5.578;2023-09-12T04:05:42;18.80;99.90
23721;DHT22;42950;52.134;5.578;2023-09-12T04:10:34;19.00;99.90
23721;DHT22;42950;52.134;5.578;2023-09-12T04:37:32;19.40;99.90
23721;DHT22;42950;52.134;5.578;2023-09-12T04:39:58;19.40;99.90
23721;DHT22;42950;52.134;5.578;2023-09-12T04:42:24;19.10;99.90
23721;DHT22;42950;52.134;5.578;2023-09-12T04:44:49;19.50;99.90
23721;DHT22;42950;52.134;5.578;2023-09-12T04:47:15;19.30;99.90
23721;DHT22;42950;52.134;5.578;2023-09-12T04:49:43;19.10;99.90
23721;DHT22;42950;52.134;5.578;2023-09-12T04:52:09;19.10;99.90
23721;DHT22;42950;52.134;5.578;2023-09-12T04:54:35;19.50;99.90
23721;DHT22;42950;52.134;5.578;2023-09-12T04:57:01;19.00;99.90
23721;DHT22;42950;52.134;5.578;2023-09-12T04:59:29;19.00;99.90
23721;DHT22;42950;52.134;5.578;2023-09-12T05:01:54;19.20;99.90
23721;DHT22;42950;52.134;5.578;2023-09-12T05:04:21;19.10;99.90
23721;DHT22;42950;52.134;5.578;2023-09-12T05:06:47;19.10;99.90
23721;DHT22;42950;52.134;5.578;2023-09-12T05:09:13;19.10;99.90
23721;DHT22;42950;52.134;5.578;2023-09-12T05:11:39;18.80;99.90
23721;DHT22;42950;52.134;5.578;2023-09-12T05:14:06;18.90;99.90
23721;DHT22;42950;52.134;5.578;2023-09-12T05:16:32;18.80;99.90
23721;DHT22;42950;52.134;5.578;2023-09-12T05:18:57;18.60;99.90
23721;DHT22;42950;52.134;5.578;2023-09-12T05:21:23;18.80;99.90
23721;DHT22;42950;52.134;5.578;2023-09-12T05:23:49;19.00;99.90
23721;DHT22;42950;52.134;5.578;2023-09-12T05:26:15;18.80;99.90
23721;DHT22;42950;52.134;5.578;2023-09-12T05:28:41;18.70;99.90
23721;DHT22;42950;52.134;5.578;2023-09-12T05:31:07;18.70;99.90
23721;DHT22;42950;52.134;5.578;2023-09-12T05:33:33;18.60;99.90
23721;DHT22;42950;52.134;5.578;2023-09-12T05:36:00;18.60;99.90
23721;DHT22;42950;52.134;5.578;2023-09-12T05:38:26;18.70;99.90
23721;DHT22;42950;52.134;5.578;2023-09-12T05:40:53;18.80;99.90
23721;DHT22;42950;52.134;5.578;2023-09-12T05:43:19;18.70;99.90
23721;DHT22;42950;52.134;5.578;2023-09-12T05:45:46;18.70;99.90
23721;DHT22;42950;52.134;5.578;2023-09-12T05:48:12;18.80;99.90
23721;DHT22;42950;52.134;5.578;2023-09-12T05:50:37;18.70;99.90
23721;DHT22;42950;52.134;5.578;2023-09-12T05:53:03;19.00;99.90
23721;DHT22;42950;52.134;5.578;2023-09-12T05:55:29;18.80;99.90
23721;DHT22;42950;52.134;5.578;2023-09-12T05:57:54;18.90;99.90
23721;DHT22;42950;52.134;5.578;2023-09-12T06:00:20;18.80;99.90
23721;DHT22;42950;52.134;5.578;2023-09-12T06:02:47;18.90;99.90
23721;DHT22;42950;52.134;5.578;2023-09-12T06:05:14;19.10;99.90
23721;DHT22;42950;52.134;5.578;2023-09-12T06:07:40;18.70;99.90
23721;DHT22;42950;52.134;5.578;2023-09-12T06:10:07;19.00;99.90
23721;DHT22;42950;52.134;5.578;2023-09-12T06:12:33;18.90;99.90
23721;DHT22;42950;52.134;5.578;2023-09-12T06:15:03;18.90;99.90
23721;DHT22;42950;52.134;5.578;2023-09-12T06:17:30;18.90;99.90
23721;DHT22;42950;52.134;5.578;2023-09-12T06:19:56;19.10;99.90
23721;DHT22;42950;52.134;5.578;2023-09-12T06:22:22;19.20;99.90
23721;DHT22;42950;52.134;5.578;2023-09-12T06:24:51;19.20;99.90
23721;DHT22;42950;52.134;5.578;2023-09-12T06:27:17;19.00;99.90
23721;DHT22;42950;52.134;5.578;2023-09-12T06:29:47;19.10;99.90
23721;DHT22;42950;52.134;5.578;2023-09-12T06:32:14;19.10;99.90
23721;DHT22;42950;52.134;5.578;2023-09-12T06:34:41;19.40;99.90
23721;DHT22;42950;52.134;5.578;2023-09-12T06:37:07;19.20;99.90
23721;DHT22;42950;52.134;5.578;2023-09-12T06:39:32;19.10;99.90
23721;DHT22;42950;52.134;5.578;2023-09-12T06:41:58;19.20;99.90
23721;DHT22;42950;52.134;5.578;2023-09-12T06:44:24;19.20;99.90
23721;DHT22;42950;52.134;5.578;2023-09-12T06:46:50;19.50;99.90
23721;DHT22;42950;52.134;5.578;2023-09-12T06:49:21;19.30;99.90
23721;DHT22;42950;52.134;5.578;2023-09-12T06:51:49;19.60;99.90
23721;DHT22;42950;52.134;5.578;2023-09-12T06:54:14;19.60;99.90
23721;DHT22;42950;52.134;5.578;2023-09-12T06:56:41;19.20;99.90
23721;DHT22;42950;52.134;5.578;2023-09-12T06:59:08;19.60;99.90
23721;DHT22;42950;52.134;5.578;2023-09-12T07:01:34;19.40;99.90
23721;DHT22;42950;52.134;5.578;2023-09-12T07:04:00;19.40;99.90
23721;DHT22;42950;52.134;5.578;2023-09-12T07:21:09;19.60;99.90
23721;DHT22;42950;52.134;5.578;2023-09-12T07:23:37;19.70;99.90
23721;DHT22;42950;52.134;5.578;2023-09-12T07:50:39;19.70;99.90
23721;DHT22;42950;52.134;5.578;2023-09-12T07:53:07;20.20;99.90
23721;DHT22;42950;52.134;5.578;2023-09-12T07:55:37;20.30;99.90
23721;DHT22;42950;52.134;5.578;2023-09-12T07:58:12;20.00;99.90
23721;DHT22;42950;52.134;5.578;2023-09-12T08:00:38;19.80;99.90
23721;DHT22;42950;52.134;5.578;2023-09-12T08:05:30;20.00;99.90
23721;DHT22;42950;52.134;5.578;2023-09-12T08:44:53;20.90;99.90
23721;DHT22;42950;52.134;5.578;2023-09-12T08:47:22;21.10;99.90
23721;DHT22;42950;52.134;5.578;2023-09-12T08:52:15;21.30;99.90
23721;DHT22;42950;52.134;5.578;2023-09-12T08:57:08;21.60;99.90
23721;DHT22;42950;52.134;5.578;2023-09-12T08:59:37;21.60;99.90
23721;DHT22;42950;52.134;5.578;2023-09-12T09:02:08;21.60;99.90
23721;DHT22;42950;52.134;5.578;2023-09-12T09:04:34;21.60;99.90
23721;DHT22;42950;52.134;5.578;2023-09-12T09:07:01;21.90;99.90
23721;DHT22;42950;52.134;5.578;2023-09-12T09:09:28;22.10;99.90
23721;DHT22;42950;52.134;5.578;2023-09-12T09:21:41;22.10;99.90
23721;DHT22;42950;52.134;5.578;2023-09-12T09:29:17;22.70;99.90
23721;DHT22;42950;52.134;5.578;2023-09-12T09:31:44;22.70;99.90
23721;DHT22;42950;52.134;5.578;2023-09-12T09:36:46;23.10;99.90
23721;DHT22;42950;52.134;5.578;2023-09-12T09:39:14;23.30;99.90
23721;DHT22;42950;52.134;5.578;2023-09-12T09:41:42;23.30;99.90
23721;DHT22;42950;52.134;5.578;2023-09-12T09:44:08;23.60;99.90
23721;DHT22;42950;52.134;5.578;2023-09-12T09:46:37;23.60;99.90
23721;DHT22;42950;52.134;5.578;2023-09-12T09:49:03;23.40;99.90
23721;DHT22;42950;52.134;5.578;2023-09-12T09:51:31;23.60;99.90
23721;DHT22;42950;52.134;5.578;2023-09-12T09:53:57;23.60;99.90
23721;DHT22;42950;52.134;5.578;2023-09-12T09:56:24;23.80;99.90
23721;DHT22;42950;52.134;5.578;2023-09-12T09:58:55;24.10;99.90
23721;DHT22;42950;52.134;5.578;2023-09-12T10:01:27;24.10;99.90
23721;DHT22;42950;52.134;5.578;2023-09-12T10:03:59;24.10;99.90
23721;DHT22;42950;52.134;5.578;2023-09-12T10:06:27;24.20;99.90
23721;DHT22;42950;52.134;5.578;2023-09-12T10:08:54;24.30;99.90
23721;DHT22;42950;52.134;5.578;2023-09-12T10:11:27;24.40;99.90
23721;DHT22;42950;52.134;5.578;2023-09-12T10:13:55;24.30;99.90
23721;DHT22;42950;52.134;5.578;2023-09-12T10:16:29;24.70;99.90
23721;DHT22;42950;52.134;5.578;2023-09-12T10:19:13;25.00;99.90
23721;DHT22;42950;52.134;5.578;2023-09-12T10:24:39;25.20;99.90
23721;DHT22;42950;52.134;5.578;2023-09-12T10:27:07;24.80;99.90
23721;DHT22;42950;52.134;5.578;2023-09-12T10:29:33;25.10;99.90
23721;DHT22;42950;52.134;5.578;2023-09-12T10:32:00;25.00;99.90
23721;DHT22;42950;52.134;5.578;2023-09-12T10:34:27;24.80;99.90
23721;DHT22;42950;52.134;5.578;2023-09-12T10:36:58;24.60;99.90
23721;DHT22;42950;52.134;5.578;2023-09-12T10:46:47;25.20;99.90
23721;DHT22;42950;52.134;5.578;2023-09-12T10:49:15;25.40;99.90
23721;DHT22;42950;52.134;5.578;2023-09-12T10:51:46;25.30;99.90
23721;DHT22;42950;52.134;5.578;2023-09-12T10:54:16;25.30;99.90
23721;DHT22;42950;52.134;5.578;2023-09-12T10:57:05;25.40;99.90
23721;DHT22;42950;52.134;5.578;2023-09-12T10:59:31;25.50;99.90
23721;DHT22;42950;52.134;5.578;2023-09-12T11:02:31;25.40;99.90
23721;DHT22;42950;52.134;5.578;2023-09-12T11:04:59;25.00;99.90
23721;DHT22;42950;52.134;5.578;2023-09-12T11:10:16;24.80;99.90
23721;DHT22;42950;52.134;5.578;2023-09-12T11:20:11;25.40;99.90
23721;DHT22;42950;52.134;5.578;2023-09-12T11:25:26;25.60;99.90
23721;DHT22;42950;52.134;5.578;2023-09-12T11:30:19;25.30;99.90
23721;DHT22;42950;52.134;5.578;2023-09-12T11:32:50;25.20;99.90
23721;DHT22;42950;52.134;5.578;2023-09-12T11:35:21;25.50;99.90
23721;DHT22;42950;52.134;5.578;2023-09-12T11:37:55;25.70;99.90
23721;DHT22;42950;52.134;5.578;2023-09-12T11:42:50;26.50;99.90
23721;DHT22;42950;52.134;5.578;2023-09-12T11:45:21;26.80;99.90
23721;DHT22;42950;52.134;5.578;2023-09-12T11:47:47;26.70;99.90
23721;DHT22;42950;52.134;5.578;2023-09-12T11:53:10;26.50;99.90
23721;DHT22;42950;52.134;5.578;2023-09-12T11:55:50;26.90;99.90
23721;DHT22;42950;52.134;5.578;2023-09-12T11:58:19;26.70;99.90
23721;DHT22;42950;52.134;5.578;2023-09-12T12:01:03;26.90;99.90
23721;DHT22;42950;52.134;5.578;2023-09-12T12:03:30;27.30;99.90
23721;DHT22;42950;52.134;5.578;2023-09-12T12:05:57;27.10;99.90
23721;DHT22;42950;52.134;5.578;2023-09-12T12:08:23;27.40;99.90
23721;DHT22;42950;52.134;5.578;2023-09-12T12:10:52;27.60;99.90
23721;DHT22;42950;52.134;5.578;2023-09-12T12:13:19;27.60;99.90
23721;DHT22;42950;52.134;5.578;2023-09-12T12:15:45;27.70;99.90
23721;DHT22;42950;52.134;5.578;2023-09-12T12:18:12;28.00;99.90
23721;DHT22;42950;52.134;5.578;2023-09-12T12:20:38;28.00;99.90
23721;DHT22;42950;52.134;5.578;2023-09-12T12:23:03;28.00;99.90
23721;DHT22;42950;52.134;5.578;2023-09-12T12:25:33;28.10;99.90
23721;DHT22;42950;52.134;5.578;2023-09-12T12:28:00;28.10;99.90
23721;DHT22;42950;52.134;5.578;2023-09-12T12:30:29;28.10;99.90
23721;DHT22;42950;52.134;5.578;2023-09-12T12:32:55;27.60;99.90
23721;DHT22;42950;52.134;5.578;2023-09-12T12:35:23;27.70;99.90
23721;DHT22;42950;52.134;5.578;2023-09-12T12:37:50;27.70;99.90
23721;DHT22;42950;52.134;5.578;2023-09-12T12:40:16;27.80;99.90
23721;DHT22;42950;52.134;5.578;2023-09-12T12:42:43;27.70;99.90
23721;DHT22;42950;52.134;5.578;2023-09-12T12:47:42;27.20;99.90
23721;DHT22;42950;52.134;5.578;2023-09-12T12:50:14;27.20;99.90
23721;DHT22;42950;52.134;5.578;2023-09-12T12:52:40;27.40;99.90
23721;DHT22;42950;52.134;5.578;2023-09-12T12:55:10;27.70;99.90
23721;DHT22;42950;52.134;5.578;2023-09-12T12:57:37;27.80;99.90
23721;DHT22;42950;52.134;5.578;2023-09-12T13:00:09;27.60;99.90
23721;DHT22;42950;52.134;5.578;2023-09-12T13:02:37;27.50;99.90
23721;DHT22;42950;52.134;5.578;2023-09-12T13:05:06;27.60;99.90
23721;DHT22;42950;52.134;5.578;2023-09-12T13:07:35;27.60;99.90
23721;DHT22;42950;52.134;5.578;2023-09-12T13:10:01;27.40;99.90
23721;DHT22;42950;52.134;5.578;2023-09-12T13:12:29;27.40;99.90
23721;DHT22;42950;52.134;5.578;2023-09-12T13:14:55;27.50;99.90
23721;DHT22;42950;52.134;5.578;2023-09-12T13:17:21;27.50;99.90
23721;DHT22;42950;52.134;5.578;2023-09-12T13:19:47;27.70;99.90
23721;DHT22;42950;52.134;5.578;2023-09-12T13:22:13;27.50;99.90
23721;DHT22;42950;52.134;5.578;2023-09-12T13:24:44;27.50;99.90
23721;DHT22;42950;52.134;5.578;2023-09-12T13:27:11;27.60;99.90
23721;DHT22;42950;52.134;5.578;2023-09-12T13:29:37;27.70;99.90
23721;DHT22;42950;52.134;5.578;2023-09-12T13:32:03;27.70;99.90
23721;DHT22;42950;52.134;5.578;2023-09-12T13:34:29;27.60;99.90
23721;DHT22;42950;52.134;5.578;2023-09-12T13:36:55;27.70;99.90
23721;DHT22;42950;52.134;5.578;2023-09-12T13:39:22;27.60;99.90
23721;DHT22;42950;52.134;5.578;2023-09-12T13:41:48;27.60;99.90
23721;DHT22;42950;52.134;5.578;2023-09-12T13:44:13;27.80;99.90
23721;DHT22;42950;52.134;5.578;2023-09-12T13:46:40;28.10;99.90
23721;DHT22;42950;52.134;5.578;2023-09-12T13:49:09;28.00;99.90
23721;DHT22;42950;52.134;5.578;2023-09-12T13:51:36;28.00;99.90
23721;DHT22;42950;52.134;5.578;2023-09-12T13:54:01;28.00;99.90
23721;DHT22;42950;52.134;5.578;2023-09-12T13:56:28;28.00;99.90
23721;DHT22;42950;52.134;5.578;2023-09-12T13:58:58;28.10;99.90
23721;DHT22;42950;52.134;5.578;2023-09-12T14:01:24;27.80;99.90
23721;DHT22;42950;52.134;5.578;2023-09-12T14:03:49;27.60;99.90
23721;DHT22;42950;52.134;5.578;2023-09-12T14:06:15;27.50;99.90
23721;DHT22;42950;52.134;5.578;2023-09-12T14:08:41;27.30;99.90
23721;DHT22;42950;52.134;5.578;2023-09-12T14:11:07;27.20;99.90
23721;DHT22;42950;52.134;5.578;2023-09-12T14:13:32;26.80;99.90
23721;DHT22;42950;52.134;5.578;2023-09-12T14:15:59;26.70;99.90
23721;DHT22;42950;52.134;5.578;2023-09-12T14:18:25;26.90;99.90
23721;DHT22;42950;52.134;5.578;2023-09-12T14:20:51;26.50;99.90
23721;DHT22;42950;52.134;5.578;2023-09-12T14:23:17;26.20;99.90
23721;DHT22;42950;52.134;5.578;2023-09-12T14:25:42;26.20;99.90
23721;DHT22;42950;52.134;5.578;2023-09-12T14:28:08;25.80;99.90
23721;DHT22;42950;52.134;5.578;2023-09-12T14:30:33;25.50;99.90
23721;DHT22;42950;52.134;5.578;2023-09-12T14:33:02;25.40;99.90
23721;DHT22;42950;52.134;5.578;2023-09-12T14:35:30;25.50;99.90
23721;DHT22;42950;52.134;5.578;2023-09-12T14:37:55;25.40;99.90
23721;DHT22;42950;52.134;5.578;2023-09-12T14:40:21;25.10;99.90
23721;DHT22;42950;52.134;5.578;2023-09-12T14:42:47;24.90;99.90
23721;DHT22;42950;52.134;5.578;2023-09-12T14:45:16;25.10;99.90
23721;DHT22;42950;52.134;5.578;2023-09-12T14:47:42;25.20;99.90
23721;DHT22;42950;52.134;5.578;2023-09-12T14:50:10;25.20;99.90
23721;DHT22;42950;52.134;5.578;2023-09-12T14:52:36;25.20;99.90
23721;DHT22;42950;52.134;5.578;2023-09-12T14:55:04;25.20;99.90
23721;DHT22;42950;52.134;5.578;2023-09-12T14:57:37;25.20;99.90
23721;DHT22;42950;52.134;5.578;2023-09-12T15:00:03;25.30;99.90
23721;DHT22;42950;52.134;5.578;2023-09-12T15:02:29;25.10;99.90
23721;DHT22;42950;52.134;5.578;2023-09-12T15:05:01;25.20;99.90
23721;DHT22;42950;52.134;5.578;2023-09-12T15:07:28;25.30;99.90
23721;DHT22;42950;52.134;5.578;2023-09-12T15:09:57;25.50;99.90
23721;DHT22;42950;52.134;5.578;2023-09-12T15:12:23;25.30;99.90
23721;DHT22;42950;52.134;5.578;2023-09-12T15:14:50;25.30;99.90
23721;DHT22;42950;52.134;5.578;2023-09-12T15:17:19;25.20;99.90
23721;DHT22;42950;52.134;5.578;2023-09-12T15:19:47;25.30;99.90
23721;DHT22;42950;52.134;5.578;2023-09-12T15:22:12;25.20;99.90
23721;DHT22;42950;52.134;5.578;2023-09-12T15:24:40;25.30;99.90
23721;DHT22;42950;52.134;5.578;2023-09-12T15:27:06;25.40;99.90
23721;DHT22;42950;52.134;5.578;2023-09-12T15:29:31;25.40;99.90
23721;DHT22;42950;52.134;5.578;2023-09-12T15:31:58;25.40;99.90
23721;DHT22;42950;52.134;5.578;2023-09-12T15:34:26;25.10;99.90
23721;DHT22;42950;52.134;5.578;2023-09-12T15:37:06;25.30;99.90
23721;DHT22;42950;52.134;5.578;2023-09-12T15:39:33;25.00;99.90
23721;DHT22;42950;52.134;5.578;2023-09-12T15:41:59;24.70;99.90
23721;DHT22;42950;52.134;5.578;2023-09-12T15:44:25;24.80;99.90
23721;DHT22;42950;52.134;5.578;2023-09-12T15:46:52;25.30;99.90
23721;DHT22;42950;52.134;5.578;2023-09-12T15:49:20;24.80;99.90
23721;DHT22;42950;52.134;5.578;2023-09-12T15:51:46;24.90;99.90
23721;DHT22;42950;52.134;5.578;2023-09-12T15:54:13;25.00;99.90
23721;DHT22;42950;52.134;5.578;2023-09-12T15:56:40;25.00;99.90
23721;DHT22;42950;52.134;5.578;2023-09-12T15:59:06;25.20;99.90
23721;DHT22;42950;52.134;5.578;2023-09-12T16:01:33;25.10;99.90
23721;DHT22;42950;52.134;5.578;2023-09-12T16:03:59;25.00;99.90
23721;DHT22;42950;52.134;5.578;2023-09-12T16:06:25;24.80;99.90
23721;DHT22;42950;52.134;5.578;2023-09-12T16:08:51;24.70;99.90
23721;DHT22;42950;52.134;5.578;2023-09-12T16:11:17;24.80;99.90
23721;DHT22;42950;52.134;5.578;2023-09-12T16:13:44;24.80;99.90
23721;DHT22;42950;52.134;5.578;2023-09-12T16:16:09;24.60;99.90
23721;DHT22;42950;52.134;5.578;2023-09-12T16:18:35;24.50;99.90
23721;DHT22;42950;52.134;5.578;2023-09-12T16:21:06;24.50;99.90
23721;DHT22;42950;52.134;5.578;2023-09-12T16:23:34;24.50;99.90
23721;DHT22;42950;52.134;5.578;2023-09-12T16:26:00;24.50;99.90
23721;DHT22;42950;52.134;5.578;2023-09-12T16:28:26;24.70;99.90
23721;DHT22;42950;52.134;5.578;2023-09-12T16:30:52;24.70;99.90
23721;DHT22;42950;52.134;5.578;2023-09-12T16:33:19;24.90;99.90
23721;DHT22;42950;52.134;5.578;2023-09-12T16:35:45;24.90;99.90
23721;DHT22;42950;52.134;5.578;2023-09-12T16:38:12;24.90;99.90
23721;DHT22;42950;52.134;5.578;2023-09-12T16:40:40;24.70;99.90
23721;DHT22;42950;52.134;5.578;2023-09-12T16:43:06;24.60;99.90
23721;DHT22;42950;52.134;5.578;2023-09-12T16:45:32;24.50;99.90
23721;DHT22;42950;52.134;5.578;2023-09-12T16:47:58;24.40;99.90
23721;DHT22;42950;52.134;5.578;2023-09-12T16:50:26;24.00;99.90
23721;DHT22;42950;52.134;5.578;2023-09-12T16:52:52;23.90;99.90
23721;DHT22;42950;52.134;5.578;2023-09-12T16:55:18;23.70;99.90
23721;DHT22;42950;52.134;5.578;2023-09-12T16:57:44;23.70;99.90
23721;DHT22;42950;52.134;5.578;2023-09-12T17:00:12;23.70;99.90
23721;DHT22;42950;52.134;5.578;2023-09-12T17:02:39;23.70;99.90
23721;DHT22;42950;52.134;5.578;2023-09-12T17:05:06;23.50;99.90
23721;DHT22;42950;52.134;5.578;2023-09-12T17:07:33;23.30;99.90
23721;DHT22;42950;52.134;5.578;2023-09-12T17:09:59;23.30;99.90
23721;DHT22;42950;52.134;5.578;2023-09-12T17:12:25;23.30;99.90
23721;DHT22;42950;52.134;5.578;2023-09-12T17:14:51;23.60;99.90
23721;DHT22;42950;52.134;5.578;2023-09-12T17:17:17;23.50;99.90
23721;DHT22;42950;52.134;5.578;2023-09-12T17:19:43;23.50;99.90
23721;DHT22;42950;52.134;5.578;2023-09-12T17:22:10;23.10;99.90
23721;DHT22;42950;52.134;5.578;2023-09-12T17:24:38;23.10;99.90
23721;DHT22;42950;52.134;5.578;2023-09-12T17:27:04;23.10;99.90
23721;DHT22;42950;52.134;5.578;2023-09-12T17:29:30;23.20;99.90
23721;DHT22;42950;52.134;5.578;2023-09-12T17:31:56;23.40;99.90
23721;DHT22;42950;52.134;5.578;2023-09-12T17:34:42;23.40;99.90
23721;DHT22;42950;52.134;5.578;2023-09-12T17:37:09;23.40;99.90
23721;DHT22;42950;52.134;5.578;2023-09-12T17:39:35;23.30;99.90
23721;DHT22;42950;52.134;5.578;2023-09-12T17:42:01;23.10;99.90
23721;DHT22;42950;52.134;5.578;2023-09-12T17:44:27;23.00;99.90
23721;DHT22;42950;52.134;5.578;2023-09-12T17:46:52;23.00;99.90
23721;DHT22;42950;52.134;5.578;2023-09-12T17:49:18;22.90;99.90
23721;DHT22;42950;52.134;5.578;2023-09-12T17:51:44;22.80;99.90
23721;DHT22;42950;52.134;5.578;2023-09-12T17:54:09;22.90;99.90
23721;DHT22;42950;52.134;5.578;2023-09-12T17:56:35;23.10;99.90
23721;DHT22;42950;52.134;5.578;2023-09-12T17:59:00;22.90;99.90
23721;DHT22;42950;52.134;5.578;2023-09-12T18:01:26;23.00;99.90
23721;DHT22;42950;52.134;5.578;2023-09-12T18:03:53;22.90;99.90
23721;DHT22;42950;52.134;5.578;2023-09-12T18:06:20;22.80;99.90
23721;DHT22;42950;52.134;5.578;2023-09-12T18:08:47;22.60;99.90
23721;DHT22;42950;52.134;5.578;2023-09-12T18:11:13;22.80;99.90
23721;DHT22;42950;52.134;5.578;2023-09-12T18:13:40;22.50;99.90
23721;DHT22;42950;52.134;5.578;2023-09-12T18:16:06;22.30;99.90
23721;DHT22;42950;52.134;5.578;2023-09-12T18:18:32;22.40;99.90
23721;DHT22;42950;52.134;5.578;2023-09-12T18:20:59;22.00;99.90
23721;DHT22;42950;52.134;5.578;2023-09-12T18:23:24;22.00;99.90
23721;DHT22;42950;52.134;5.578;2023-09-12T18:25:50;21.90;99.90
23721;DHT22;42950;52.134;5.578;2023-09-12T18:28:36;22.10;99.90
23721;DHT22;42950;52.134;5.578;2023-09-12T18:31:02;21.90;99.90
23721;DHT22;42950;52.134;5.578;2023-09-12T18:33:28;21.90;99.90
23721;DHT22;42950;52.134;5.578;2023-09-12T18:35:53;21.90;99.90
23721;DHT22;42950;52.134;5.578;2023-09-12T18:38:20;21.90;99.90
23721;DHT22;42950;52.134;5.578;2023-09-12T18:40:46;21.90;99.90
23721;DHT22;42950;52.134;5.578;2023-09-12T18:43:13;21.80;99.90
23721;DHT22;42950;52.134;5.578;2023-09-12T18:45:39;21.80;99.90
23721;DHT22;42950;52.134;5.578;2023-09-12T18:48:05;21.80;99.90
23721;DHT22;42950;52.134;5.578;2023-09-12T18:50:33;21.80;99.90
23721;DHT22;42950;52.134;5.578;2023-09-12T18:52:59;21.90;99.90
23721;DHT22;42950;52.134;5.578;2023-09-12T18:55:26;21.90;99.90
23721;DHT22;42950;52.134;5.578;2023-09-12T18:57:52;21.90;99.90
23721;DHT22;42950;52.134;5.578;2023-09-12T19:00:18;22.20;99.90
23721;DHT22;42950;52.134;5.578;2023-09-12T19:02:44;22.10;99.90
23721;DHT22;42950;52.134;5.578;2023-09-12T19:05:10;22.10;99.90
23721;DHT22;42950;52.134;5.578;2023-09-12T19:07:36;21.70;99.90
23721;DHT22;42950;52.134;5.578;2023-09-12T19:10:02;21.70;99.90
23721;DHT22;42950;52.134;5.578;2023-09-12T19:12:28;21.70;99.90
23721;DHT22;42950;52.134;5.578;2023-09-12T19:14:54;22.00;99.90
23721;DHT22;42950;52.134;5.578;2023-09-12T19:17:20;21.90;99.90
23721;DHT22;42950;52.134;5.578;2023-09-12T19:19:45;21.90;99.90
23721;DHT22;42950;52.134;5.578;2023-09-12T19:22:11;21.80;99.90
23721;DHT22;42950;52.134;5.578;2023-09-12T19:24:37;21.80;99.90